sensor_id;sensor_type;location;lat;lon;timestamp;P1;durP1;ratioP1;P2;durP2;ratioP2
38182;SDS011;23991;52.430;10.586;2023-02-28T00:00:31;19.10;;;8.15;;
38182;SDS011;23991;52.430;10.586;2023-02-28T00:02:57;21.17;;;7.25;;
38182;SDS011;23991;52.430;10.586;2023-02-28T00:05:23;18.00;;;6.85;;
38182;SDS011;23991;52.430;10.586;2023-02-28T00:07:50;19.10;;;6.40;;
38182;SDS011;23991;52.430;10.586;2023-02-28T00:10:20;19.17;;;6.80;;
38182;SDS011;23991;52.430;10.586;2023-02-28T00:12:51;16.92;;;6.53;;
38182;SDS011;23991;52.430;10.586;2023-02-28T00:15:18;12.50;;;5.80;;
38182;SDS011;23991;52.430;10.586;2023-02-28T00:17:44;15.85;;;6.38;;
38182;SDS011;23991;52.430;10.586;2023-02-28T00:20:11;14.48;;;5.93;;
38182;SDS011;23991;52.430;10.586;2023-02-28T00:22:38;20.83;;;8.35;;
38182;SDS011;23991;52.430;10.586;2023-02-28T00:25:05;18.33;;;7.32;;
38182;SDS011;23991;52.430;10.586;2023-02-28T00:27:32;10.00;;;5.38;;
38182;SDS011;23991;52.430;10.586;2023-02-28T00:29:58;13.35;;;6.68;;
38182;SDS011;23991;52.430;10.586;2023-02-28T00:32:24;15.77;;;6.55;;
38182;SDS011;23991;52.430;10.586;2023-02-28T00:34:49;12.23;;;6.75;;
38182;SDS011;23991;52.430;10.586;2023-02-28T00:37:15;14.63;;;6.07;;
38182;SDS011;23991;52.430;10.586;2023-02-28T00:39:41;15.85;;;6.63;;
38182;SDS011;23991;52.430;10.586;2023-02-28T00:42:06;12.98;;;6.57;;
38182;SDS011;23991;52.430;10.586;2023-02-28T00:44:33;13.45;;;5.93;;
38182;SDS011;23991;52.430;10.586;2023-02-28T00:46:59;10.65;;;6.38;;
38182;SDS011;23991;52.430;10.586;2023-02-28T00:49:25;16.48;;;7.10;;
38182;SDS011;23991;52.430;10.586;2023-02-28T00:51:51;16.80;;;6.75;;
38182;SDS011;23991;52.430;10.586;2023-02-28T00:54:18;8.77;;;6.00;;
38182;SDS011;23991;52.430;10.586;2023-02-28T00:56:44;12.38;;;6.60;;
38182;SDS011;23991;52.430;10.586;2023-02-28T00:59:11;12.18;;;6.03;;
38182;SDS011;23991;52.430;10.586;2023-02-28T01:01:37;10.15;;;5.20;;
38182;SDS011;23991;52.430;10.586;2023-02-28T01:04:04;10.32;;;6.07;;
38182;SDS011;23991;52.430;10.586;2023-02-28T01:06:29;11.93;;;6.25;;
38182;SDS011;23991;52.430;10.586;2023-02-28T01:08:56;9.93;;;6.25;;
38182;SDS011;23991;52.430;10.586;2023-02-28T01:11:22;12.50;;;5.63;;
38182;SDS011;23991;52.430;10.586;2023-02-28T01:13:48;9.85;;;5.78;;
38182;SDS011;23991;52.430;10.586;2023-02-28T01:16:13;12.93;;;6.20;;
38182;SDS011;23991;52.430;10.586;2023-02-28T01:18:39;14.10;;;6.25;;
38182;SDS011;23991;52.430;10.586;2023-02-28T01:21:10;16.45;;;7.00;;
38182;SDS011;23991;52.430;10.586;2023-02-28T01:23:38;14.18;;;7.63;;
38182;SDS011;23991;52.430;10.586;2023-02-28T01:26:08;13.93;;;7.47;;
38182;SDS011;23991;52.430;10.586;2023-02-28T01:28:35;17.38;;;7.28;;
38182;SDS011;23991;52.430;10.586;2023-02-28T01:31:01;15.15;;;7.10;;
38182;SDS011;23991;52.430;10.586;2023-02-28T01:33:27;18.27;;;8.35;;
38182;SDS011;23991;52.430;10.586;2023-02-28T01:36:00;23.23;;;8.57;;
38182;SDS011;23991;52.430;10.586;2023-02-28T01:38:35;18.13;;;7.95;;
38182;SDS011;23991;52.430;10.586;2023-02-28T01:41:01;20.45;;;8.35;;
38182;SDS011;23991;52.430;10.586;2023-02-28T01:43:31;13.32;;;6.65;;
38182;SDS011;23991;52.430;10.586;2023-02-28T01:46:17;16.25;;;7.53;;
38182;SDS011;23991;52.430;10.586;2023-02-28T01:49:02;14.07;;;6.93;;
38182;SDS011;23991;52.430;10.586;2023-02-28T01:51:42;14.55;;;6.78;;
38182;SDS011;23991;52.430;10.586;2023-02-28T01:54:16;18.63;;;7.13;;
38182;SDS011;23991;52.430;10.586;2023-02-28T01:57:07;14.52;;;6.57;;
38182;SDS011;23991;52.430;10.586;2023-02-28T01:59:47;13.35;;;6.70;;
38182;SDS011;23991;52.430;10.586;2023-02-28T02:02:17;12.43;;;5.93;;
38182;SDS011;23991;52.430;10.586;2023-02-28T02:05:06;13.00;;;5.85;;
38182;SDS011;23991;52.430;10.586;2023-02-28T02:07:35;16.25;;;6.53;;
38182;SDS011;23991;52.430;10.586;2023-02-28T02:10:16;9.15;;;5.32;;
38182;SDS011;23991;52.430;10.586;2023-02-28T02:13:14;10.85;;;5.00;;
38182;SDS011;23991;52.430;10.586;2023-02-28T02:18:42;13.18;;;4.95;;
38182;SDS011;23991;52.430;10.586;2023-02-28T02:26:58;8.55;;;5.25;;
38182;SDS011;23991;52.430;10.586;2023-02-28T02:35:33;8.68;;;4.57;;
38182;SDS011;23991;52.430;10.586;2023-02-28T02:38:31;6.80;;;5.00;;
38182;SDS011;23991;52.430;10.586;2023-02-28T02:41:04;8.30;;;4.50;;
38182;SDS011;23991;52.430;10.586;2023-02-28T02:43:49;8.02;;;4.78;;
38182;SDS011;23991;52.430;10.586;2023-02-28T02:48:48;6.90;;;4.53;;
38182;SDS011;23991;52.430;10.586;2023-02-28T02:51:18;10.45;;;4.95;;
38182;SDS011;23991;52.430;10.586;2023-02-28T02:53:48;8.15;;;4.60;;
38182;SDS011;23991;52.430;10.586;2023-02-28T02:56:19;8.27;;;5.47;;
38182;SDS011;23991;52.430;10.586;2023-02-28T02:58:49;6.30;;;4.50;;
38182;SDS011;23991;52.430;10.586;2023-02-28T03:01:18;6.47;;;3.78;;
38182;SDS011;23991;52.430;10.586;2023-02-28T03:03:53;6.90;;;4.70;;
38182;SDS011;23991;52.430;10.586;2023-02-28T03:06:23;9.10;;;5.05;;
38182;SDS011;23991;52.430;10.586;2023-02-28T03:08:49;7.70;;;4.15;;
38182;SDS011;23991;52.430;10.586;2023-02-28T03:11:15;7.50;;;4.35;;
38182;SDS011;23991;52.430;10.586;2023-02-28T03:13:56;8.43;;;4.35;;
38182;SDS011;23991;52.430;10.586;2023-02-28T03:19:18;7.28;;;4.20;;
38182;SDS011;23991;52.430;10.586;2023-02-28T03:22:03;8.30;;;4.72;;
38182;SDS011;23991;52.430;10.586;2023-02-28T03:27:14;6.30;;;3.95;;
38182;SDS011;23991;52.430;10.586;2023-02-28T03:29:46;8.63;;;4.30;;
38182;SDS011;23991;52.430;10.586;2023-02-28T03:35:08;6.30;;;3.65;;
38182;SDS011;23991;52.430;10.586;2023-02-28T03:37:47;7.65;;;4.75;;
38182;SDS011;23991;52.430;10.586;2023-02-28T03:40:29;10.10;;;4.00;;
38182;SDS011;23991;52.430;10.586;2023-02-28T03:45:35;6.75;;;4.05;;
38182;SDS011;23991;52.430;10.586;2023-02-28T03:48:07;7.85;;;3.92;;
38182;SDS011;23991;52.430;10.586;2023-02-28T03:50:45;10.05;;;4.60;;
38182;SDS011;23991;52.430;10.586;2023-02-28T03:53:31;9.27;;;3.47;;
38182;SDS011;23991;52.430;10.586;2023-02-28T03:56:13;7.20;;;4.35;;
38182;SDS011;23991;52.430;10.586;2023-02-28T03:58:57;4.80;;;3.05;;
38182;SDS011;23991;52.430;10.586;2023-02-28T04:01:40;7.75;;;3.80;;
38182;SDS011;23991;52.430;10.586;2023-02-28T04:04:10;6.03;;;3.92;;
38182;SDS011;23991;52.430;10.586;2023-02-28T04:06:37;4.72;;;3.35;;
38182;SDS011;23991;52.430;10.586;2023-02-28T04:09:04;6.15;;;3.70;;
38182;SDS011;23991;52.430;10.586;2023-02-28T04:11:42;7.18;;;3.78;;
38182;SDS011;23991;52.430;10.586;2023-02-28T04:14:10;8.32;;;3.72;;
38182;SDS011;23991;52.430;10.586;2023-02-28T04:16:38;5.90;;;3.80;;
38182;SDS011;23991;52.430;10.586;2023-02-28T04:19:05;6.97;;;3.90;;
38182;SDS011;23991;52.430;10.586;2023-02-28T04:21:33;9.85;;;3.95;;
38182;SDS011;23991;52.430;10.586;2023-02-28T04:24:00;9.30;;;4.00;;
38182;SDS011;23991;52.430;10.586;2023-02-28T04:26:29;7.45;;;3.97;;
38182;SDS011;23991;52.430;10.586;2023-02-28T04:28:55;8.77;;;4.07;;
38182;SDS011;23991;52.430;10.586;2023-02-28T04:31:21;7.82;;;4.15;;
38182;SDS011;23991;52.430;10.586;2023-02-28T04:33:47;5.07;;;3.38;;
38182;SDS011;23991;52.430;10.586;2023-02-28T04:36:12;5.70;;;3.60;;
38182;SDS011;23991;52.430;10.586;2023-02-28T04:38:39;6.25;;;3.85;;
38182;SDS011;23991;52.430;10.586;2023-02-28T04:41:05;9.07;;;4.28;;
38182;SDS011;23991;52.430;10.586;2023-02-28T04:43:31;9.55;;;4.40;;
38182;SDS011;23991;52.430;10.586;2023-02-28T04:45:58;6.85;;;3.78;;
38182;SDS011;23991;52.430;10.586;2023-02-28T04:50:53;11.02;;;4.25;;
38182;SDS011;23991;52.430;10.586;2023-02-28T04:53:19;8.10;;;4.45;;
38182;SDS011;23991;52.430;10.586;2023-02-28T04:55:45;6.53;;;4.25;;
38182;SDS011;23991;52.430;10.586;2023-02-28T04:58:11;9.73;;;4.45;;
38182;SDS011;23991;52.430;10.586;2023-02-28T05:00:37;8.35;;;3.90;;
38182;SDS011;23991;52.430;10.586;2023-02-28T05:03:03;7.30;;;4.75;;
38182;SDS011;23991;52.430;10.586;2023-02-28T05:05:28;8.38;;;4.80;;
38182;SDS011;23991;52.430;10.586;2023-02-28T05:07:54;9.80;;;4.47;;
38182;SDS011;23991;52.430;10.586;2023-02-28T05:10:20;8.30;;;4.47;;
38182;SDS011;23991;52.430;10.586;2023-02-28T05:12:46;8.55;;;5.20;;
38182;SDS011;23991;52.430;10.586;2023-02-28T05:15:13;5.70;;;3.80;;
38182;SDS011;23991;52.430;10.586;2023-02-28T05:17:40;7.20;;;4.50;;
38182;SDS011;23991;52.430;10.586;2023-02-28T05:20:06;9.65;;;4.78;;
38182;SDS011;23991;52.430;10.586;2023-02-28T05:22:35;13.23;;;4.65;;
38182;SDS011;23991;52.430;10.586;2023-02-28T05:25:02;8.80;;;4.32;;
38182;SDS011;23991;52.430;10.586;2023-02-28T05:27:28;10.10;;;4.97;;
38182;SDS011;23991;52.430;10.586;2023-02-28T05:29:53;6.55;;;4.47;;
38182;SDS011;23991;52.430;10.586;2023-02-28T05:32:19;9.88;;;4.65;;
38182;SDS011;23991;52.430;10.586;2023-02-28T05:34:44;7.15;;;4.50;;
38182;SDS011;23991;52.430;10.586;2023-02-28T05:37:13;7.53;;;4.65;;
38182;SDS011;23991;52.430;10.586;2023-02-28T05:39:40;9.25;;;4.85;;
38182;SDS011;23991;52.430;10.586;2023-02-28T05:42:06;8.23;;;4.90;;
38182;SDS011;23991;52.430;10.586;2023-02-28T05:44:32;8.85;;;4.22;;
38182;SDS011;23991;52.430;10.586;2023-02-28T05:46:58;10.13;;;5.13;;
38182;SDS011;23991;52.430;10.586;2023-02-28T05:49:23;7.60;;;4.20;;
38182;SDS011;23991;52.430;10.586;2023-02-28T05:51:49;9.77;;;5.30;;
38182;SDS011;23991;52.430;10.586;2023-02-28T05:54:15;7.82;;;4.95;;
38182;SDS011;23991;52.430;10.586;2023-02-28T05:56:40;7.20;;;4.53;;
38182;SDS011;23991;52.430;10.586;2023-02-28T05:59:09;7.75;;;5.15;;
38182;SDS011;23991;52.430;10.586;2023-02-28T06:01:36;11.35;;;6.32;;
38182;SDS011;23991;52.430;10.586;2023-02-28T06:04:04;38.55;;;11.23;;
38182;SDS011;23991;52.430;10.586;2023-02-28T06:06:31;39.38;;;10.35;;
38182;SDS011;23991;52.430;10.586;2023-02-28T06:08:59;36.22;;;10.18;;
38182;SDS011;23991;52.430;10.586;2023-02-28T06:11:25;34.65;;;9.95;;
38182;SDS011;23991;52.430;10.586;2023-02-28T06:13:55;29.83;;;8.93;;
38182;SDS011;23991;52.430;10.586;2023-02-28T06:16:22;26.85;;;10.48;;
38182;SDS011;23991;52.430;10.586;2023-02-28T06:18:48;21.92;;;7.93;;
38182;SDS011;23991;52.430;10.586;2023-02-28T06:21:13;23.02;;;7.47;;
38182;SDS011;23991;52.430;10.586;2023-02-28T06:23:39;19.90;;;6.45;;
38182;SDS011;23991;52.430;10.586;2023-02-28T06:26:05;19.05;;;6.35;;
38182;SDS011;23991;52.430;10.586;2023-02-28T06:28:30;24.45;;;7.57;;
38182;SDS011;23991;52.430;10.586;2023-02-28T06:30:56;16.63;;;6.57;;
38182;SDS011;23991;52.430;10.586;2023-02-28T06:33:22;17.05;;;5.65;;
38182;SDS011;23991;52.430;10.586;2023-02-28T06:35:51;12.13;;;5.43;;
38182;SDS011;23991;52.430;10.586;2023-02-28T06:38:17;10.13;;;5.03;;
38182;SDS011;23991;52.430;10.586;2023-02-28T06:40:43;12.07;;;4.53;;
38182;SDS011;23991;52.430;10.586;2023-02-28T06:43:09;9.30;;;4.72;;
38182;SDS011;23991;52.430;10.586;2023-02-28T06:45:40;10.57;;;4.32;;
38182;SDS011;23991;52.430;10.586;2023-02-28T06:48:07;8.10;;;4.03;;
38182;SDS011;23991;52.430;10.586;2023-02-28T06:50:32;7.68;;;3.97;;
38182;SDS011;23991;52.430;10.586;2023-02-28T06:52:58;10.18;;;4.43;;
38182;SDS011;23991;52.430;10.586;2023-02-28T06:55:23;10.13;;;4.97;;
38182;SDS011;23991;52.430;10.586;2023-02-28T06:57:49;11.65;;;5.35;;
38182;SDS011;23991;52.430;10.586;2023-02-28T07:00:15;10.38;;;5.18;;
38182;SDS011;23991;52.430;10.586;2023-02-28T07:02:41;8.82;;;4.82;;
38182;SDS011;23991;52.430;10.586;2023-02-28T07:05:07;13.30;;;5.05;;
38182;SDS011;23991;52.430;10.586;2023-02-28T07:07:32;9.05;;;4.88;;
38182;SDS011;23991;52.430;10.586;2023-02-28T07:09:59;10.35;;;5.03;;
38182;SDS011;23991;52.430;10.586;2023-02-28T07:12:24;7.95;;;4.15;;
38182;SDS011;23991;52.430;10.586;2023-02-28T07:14:50;7.43;;;4.55;;
38182;SDS011;23991;52.430;10.586;2023-02-28T07:17:15;7.10;;;4.28;;
38182;SDS011;23991;52.430;10.586;2023-02-28T07:19:41;11.30;;;4.45;;
38182;SDS011;23991;52.430;10.586;2023-02-28T07:22:06;8.27;;;4.97;;
38182;SDS011;23991;52.430;10.586;2023-02-28T07:24:32;6.53;;;4.18;;
38182;SDS011;23991;52.430;10.586;2023-02-28T07:26:58;8.10;;;4.28;;
38182;SDS011;23991;52.430;10.586;2023-02-28T07:29:24;8.32;;;4.57;;
38182;SDS011;23991;52.430;10.586;2023-02-28T07:31:50;12.00;;;4.68;;
38182;SDS011;23991;52.430;10.586;2023-02-28T07:34:17;8.20;;;4.68;;
38182;SDS011;23991;52.430;10.586;2023-02-28T07:36:44;7.38;;;4.30;;
38182;SDS011;23991;52.430;10.586;2023-02-28T07:39:09;7.82;;;4.22;;
38182;SDS011;23991;52.430;10.586;2023-02-28T07:41:35;8.93;;;4.22;;
38182;SDS011;23991;52.430;10.586;2023-02-28T07:44:07;7.95;;;4.57;;
38182;SDS011;23991;52.430;10.586;2023-02-28T07:46:34;9.15;;;4.07;;
38182;SDS011;23991;52.430;10.586;2023-02-28T07:49:01;6.75;;;4.40;;
38182;SDS011;23991;52.430;10.586;2023-02-28T07:51:28;6.95;;;3.83;;
38182;SDS011;23991;52.430;10.586;2023-02-28T07:53:54;5.97;;;3.60;;
38182;SDS011;23991;52.430;10.586;2023-02-28T07:56:19;6.95;;;3.53;;
38182;SDS011;23991;52.430;10.586;2023-02-28T07:58:45;6.50;;;3.75;;
38182;SDS011;23991;52.430;10.586;2023-02-28T08:01:11;7.10;;;3.58;;
38182;SDS011;23991;52.430;10.586;2023-02-28T08:03:37;7.75;;;3.67;;
38182;SDS011;23991;52.430;10.586;2023-02-28T08:06:04;6.22;;;3.13;;
38182;SDS011;23991;52.430;10.586;2023-02-28T08:08:31;8.45;;;3.35;;
38182;SDS011;23991;52.430;10.586;2023-02-28T08:11:00;7.30;;;3.17;;
38182;SDS011;23991;52.430;10.586;2023-02-28T08:13:27;9.82;;;3.53;;
38182;SDS011;23991;52.430;10.586;2023-02-28T08:15:54;6.97;;;3.65;;
38182;SDS011;23991;52.430;10.586;2023-02-28T08:18:20;7.05;;;3.78;;
38182;SDS011;23991;52.430;10.586;2023-02-28T08:20:46;6.47;;;2.88;;
38182;SDS011;23991;52.430;10.586;2023-02-28T08:23:12;7.25;;;2.80;;
38182;SDS011;23991;52.430;10.586;2023-02-28T08:25:38;5.30;;;3.17;;
38182;SDS011;23991;52.430;10.586;2023-02-28T08:28:04;4.75;;;2.90;;
38182;SDS011;23991;52.430;10.586;2023-02-28T08:30:29;5.78;;;3.05;;
38182;SDS011;23991;52.430;10.586;2023-02-28T08:32:55;3.40;;;2.40;;
38182;SDS011;23991;52.430;10.586;2023-02-28T08:35:20;6.60;;;3.03;;
38182;SDS011;23991;52.430;10.586;2023-02-28T08:37:49;5.90;;;3.17;;
38182;SDS011;23991;52.430;10.586;2023-02-28T08:40:15;5.88;;;3.05;;
38182;SDS011;23991;52.430;10.586;2023-02-28T08:42:47;6.05;;;2.85;;
38182;SDS011;23991;52.430;10.586;2023-02-28T08:45:13;6.80;;;2.83;;
38182;SDS011;23991;52.430;10.586;2023-02-28T08:47:39;6.22;;;3.03;;
38182;SDS011;23991;52.430;10.586;2023-02-28T08:50:06;4.95;;;2.78;;
38182;SDS011;23991;52.430;10.586;2023-02-28T08:52:32;5.97;;;2.83;;
38182;SDS011;23991;52.430;10.586;2023-02-28T08:54:58;5.38;;;3.03;;
38182;SDS011;23991;52.430;10.586;2023-02-28T08:57:23;5.32;;;2.83;;
38182;SDS011;23991;52.430;10.586;2023-02-28T08:59:51;9.18;;;3.25;;
38182;SDS011;23991;52.430;10.586;2023-02-28T09:02:17;6.13;;;3.00;;
38182;SDS011;23991;52.430;10.586;2023-02-28T09:04:43;9.32;;;2.95;;
38182;SDS011;23991;52.430;10.586;2023-02-28T09:07:10;6.30;;;2.70;;
38182;SDS011;23991;52.430;10.586;2023-02-28T09:09:37;5.35;;;2.90;;
38182;SDS011;23991;52.430;10.586;2023-02-28T09:12:02;5.95;;;2.95;;
38182;SDS011;23991;52.430;10.586;2023-02-28T09:14:28;6.57;;;2.80;;
38182;SDS011;23991;52.430;10.586;2023-02-28T09:16:54;6.22;;;2.78;;
38182;SDS011;23991;52.430;10.586;2023-02-28T09:19:19;7.13;;;3.15;;
38182;SDS011;23991;52.430;10.586;2023-02-28T09:21:45;7.07;;;3.53;;
38182;SDS011;23991;52.430;10.586;2023-02-28T09:24:11;5.30;;;2.97;;
38182;SDS011;23991;52.430;10.586;2023-02-28T09:26:39;6.38;;;2.88;;
38182;SDS011;23991;52.430;10.586;2023-02-28T09:29:05;5.90;;;2.83;;
38182;SDS011;23991;52.430;10.586;2023-02-28T09:31:31;4.78;;;2.63;;
38182;SDS011;23991;52.430;10.586;2023-02-28T09:33:57;5.47;;;2.85;;
38182;SDS011;23991;52.430;10.586;2023-02-28T09:36:24;7.70;;;4.13;;
38182;SDS011;23991;52.430;10.586;2023-02-28T09:38:51;6.85;;;3.17;;
38182;SDS011;23991;52.430;10.586;2023-02-28T09:41:24;7.07;;;3.42;;
38182;SDS011;23991;52.430;10.586;2023-02-28T09:43:56;8.95;;;3.88;;
38182;SDS011;23991;52.430;10.586;2023-02-28T09:46:43;10.52;;;3.80;;
38182;SDS011;23991;52.430;10.586;2023-02-28T09:49:13;9.70;;;3.65;;
38182;SDS011;23991;52.430;10.586;2023-02-28T09:54:35;6.80;;;3.42;;
38182;SDS011;23991;52.430;10.586;2023-02-28T09:57:06;5.95;;;3.60;;
38182;SDS011;23991;52.430;10.586;2023-02-28T09:59:49;7.60;;;3.72;;
38182;SDS011;23991;52.430;10.586;2023-02-28T10:04:58;8.23;;;3.97;;
38182;SDS011;23991;52.430;10.586;2023-02-28T10:07:35;7.70;;;3.67;;
38182;SDS011;23991;52.430;10.586;2023-02-28T10:10:29;6.82;;;3.70;;
38182;SDS011;23991;52.430;10.586;2023-02-28T10:13:20;7.05;;;3.55;;
38182;SDS011;23991;52.430;10.586;2023-02-28T10:15:53;5.78;;;3.40;;
38182;SDS011;23991;52.430;10.586;2023-02-28T10:20:49;8.30;;;3.78;;
38182;SDS011;23991;52.430;10.586;2023-02-28T10:23:34;8.25;;;4.60;;
38182;SDS011;23991;52.430;10.586;2023-02-28T10:26:12;6.00;;;3.60;;
38182;SDS011;23991;52.430;10.586;2023-02-28T10:28:40;6.10;;;3.38;;
38182;SDS011;23991;52.430;10.586;2023-02-28T10:31:08;7.63;;;3.40;;
38182;SDS011;23991;52.430;10.586;2023-02-28T10:33:42;8.93;;;3.30;;
38182;SDS011;23991;52.430;10.586;2023-02-28T10:36:10;5.20;;;3.00;;
38182;SDS011;23991;52.430;10.586;2023-02-28T10:38:39;6.30;;;2.95;;
38182;SDS011;23991;52.430;10.586;2023-02-28T10:41:07;5.35;;;2.97;;
38182;SDS011;23991;52.430;10.586;2023-02-28T10:43:36;7.03;;;2.70;;
38182;SDS011;23991;52.430;10.586;2023-02-28T10:48:38;5.63;;;2.85;;
38182;SDS011;23991;52.430;10.586;2023-02-28T10:51:08;5.00;;;2.50;;
38182;SDS011;23991;52.430;10.586;2023-02-28T10:56:23;6.47;;;3.10;;
38182;SDS011;23991;52.430;10.586;2023-02-28T11:04:38;3.10;;;1.80;;
38182;SDS011;23991;52.430;10.586;2023-02-28T11:07:06;4.22;;;2.10;;
38182;SDS011;23991;52.430;10.586;2023-02-28T11:09:41;4.40;;;2.33;;
38182;SDS011;23991;52.430;10.586;2023-02-28T11:12:45;4.47;;;2.35;;
38182;SDS011;23991;52.430;10.586;2023-02-28T11:17:53;3.90;;;2.45;;
38182;SDS011;23991;52.430;10.586;2023-02-28T11:20:26;5.60;;;2.50;;
38182;SDS011;23991;52.430;10.586;2023-02-28T11:25:23;3.95;;;2.03;;
38182;SDS011;23991;52.430;10.586;2023-02-28T11:30:28;4.85;;;2.00;;
38182;SDS011;23991;52.430;10.586;2023-02-28T11:35:52;4.30;;;2.25;;
38182;SDS011;23991;52.430;10.586;2023-02-28T11:38:20;4.18;;;1.60;;
38182;SDS011;23991;52.430;10.586;2023-02-28T11:40:56;3.05;;;1.75;;
38182;SDS011;23991;52.430;10.586;2023-02-28T11:46:44;4.38;;;1.80;;
38182;SDS011;23991;52.430;10.586;2023-02-28T11:49:21;3.63;;;1.95;;
38182;SDS011;23991;52.430;10.586;2023-02-28T11:52:15;4.32;;;1.90;;
38182;SDS011;23991;52.430;10.586;2023-02-28T11:54:59;3.90;;;1.98;;
38182;SDS011;23991;52.430;10.586;2023-02-28T12:03:58;5.32;;;2.03;;
38182;SDS011;23991;52.430;10.586;2023-02-28T12:09:29;4.65;;;2.13;;
38182;SDS011;23991;52.430;10.586;2023-02-28T12:18:07;3.25;;;2.13;;
38182;SDS011;23991;52.430;10.586;2023-02-28T12:23:45;3.42;;;2.00;;
38182;SDS011;23991;52.430;10.586;2023-02-28T12:29:49;4.55;;;2.00;;
38182;SDS011;23991;52.430;10.586;2023-02-28T12:32:04;4.43;;;2.10;;
38182;SDS011;23991;52.430;10.586;2023-02-28T12:34:39;3.05;;;1.80;;
38182;SDS011;23991;52.430;10.586;2023-02-28T12:37:23;3.63;;;1.90;;
38182;SDS011;23991;52.430;10.586;2023-02-28T12:40:12;3.42;;;2.10;;
38182;SDS011;23991;52.430;10.586;2023-02-28T12:42:50;4.57;;;2.28;;
38182;SDS011;23991;52.430;10.586;2023-02-28T12:45:26;3.88;;;1.98;;
38182;SDS011;23991;52.430;10.586;2023-02-28T12:48:04;3.60;;;2.10;;
38182;SDS011;23991;52.430;10.586;2023-02-28T12:50:33;3.53;;;2.03;;
38182;SDS011;23991;52.430;10.586;2023-02-28T12:53:04;4.00;;;2.20;;
38182;SDS011;23991;52.430;10.586;2023-02-28T12:55:40;3.83;;;2.38;;
38182;SDS011;23991;52.430;10.586;2023-02-28T12:58:18;4.05;;;2.30;;
38182;SDS011;23991;52.430;10.586;2023-02-28T13:09:20;3.15;;;2.00;;
38182;SDS011;23991;52.430;10.586;2023-02-28T13:11:48;3.33;;;2.30;;
38182;SDS011;23991;52.430;10.586;2023-02-28T13:16:48;5.82;;;2.30;;
38182;SDS011;23991;52.430;10.586;2023-02-28T13:19:35;4.45;;;2.10;;
38182;SDS011;23991;52.430;10.586;2023-02-28T13:24:51;7.07;;;2.72;;
38182;SDS011;23991;52.430;10.586;2023-02-28T13:29:49;5.28;;;2.45;;
38182;SDS011;23991;52.430;10.586;2023-02-28T13:32:19;6.13;;;2.75;;
38182;SDS011;23991;52.430;10.586;2023-02-28T13:47:31;4.63;;;2.88;;
38182;SDS011;23991;52.430;10.586;2023-02-28T13:55:42;5.25;;;2.28;;
38182;SDS011;23991;52.430;10.586;2023-02-28T14:04:49;5.18;;;2.80;;
38182;SDS011;23991;52.430;10.586;2023-02-28T14:07:08;3.75;;;2.10;;
38182;SDS011;23991;52.430;10.586;2023-02-28T14:09:44;4.10;;;2.42;;
38182;SDS011;23991;52.430;10.586;2023-02-28T14:18:23;3.42;;;2.20;;
38182;SDS011;23991;52.430;10.586;2023-02-28T14:20:55;4.55;;;2.20;;
38182;SDS011;23991;52.430;10.586;2023-02-28T14:23:32;4.00;;;2.47;;
38182;SDS011;23991;52.430;10.586;2023-02-28T14:34:44;4.55;;;2.42;;
38182;SDS011;23991;52.430;10.586;2023-02-28T14:37:30;4.13;;;2.33;;
38182;SDS011;23991;52.430;10.586;2023-02-28T14:42:33;4.93;;;2.20;;
38182;SDS011;23991;52.430;10.586;2023-02-28T14:45:00;4.68;;;2.70;;
38182;SDS011;23991;52.430;10.586;2023-02-28T14:47:27;3.90;;;2.20;;
38182;SDS011;23991;52.430;10.586;2023-02-28T14:49:56;4.38;;;2.42;;
38182;SDS011;23991;52.430;10.586;2023-02-28T14:52:24;4.70;;;2.58;;
38182;SDS011;23991;52.430;10.586;2023-02-28T14:54:54;4.97;;;2.58;;
38182;SDS011;23991;52.430;10.586;2023-02-28T15:00:21;3.10;;;2.10;;
38182;SDS011;23991;52.430;10.586;2023-02-28T15:02:55;4.78;;;2.42;;
38182;SDS011;23991;52.430;10.586;2023-02-28T15:05:23;4.75;;;2.53;;
38182;SDS011;23991;52.430;10.586;2023-02-28T15:10:35;5.10;;;2.80;;
38182;SDS011;23991;52.430;10.586;2023-02-28T15:13:02;4.35;;;2.50;;
38182;SDS011;23991;52.430;10.586;2023-02-28T15:20:55;4.55;;;2.65;;
38182;SDS011;23991;52.430;10.586;2023-02-28T15:23:23;5.35;;;2.80;;
38182;SDS011;23991;52.430;10.586;2023-02-28T15:25:49;4.28;;;2.38;;
38182;SDS011;23991;52.430;10.586;2023-02-28T15:28:17;5.93;;;2.97;;
38182;SDS011;23991;52.430;10.586;2023-02-28T15:30:57;4.93;;;2.63;;
38182;SDS011;23991;52.430;10.586;2023-02-28T15:33:26;5.70;;;2.85;;
38182;SDS011;23991;52.430;10.586;2023-02-28T15:36:03;3.40;;;2.30;;
38182;SDS011;23991;52.430;10.586;2023-02-28T15:38:38;4.30;;;2.60;;
38182;SDS011;23991;52.430;10.586;2023-02-28T15:41:03;5.00;;;3.20;;
38182;SDS011;23991;52.430;10.586;2023-02-28T15:43:34;6.78;;;2.80;;
38182;SDS011;23991;52.430;10.586;2023-02-28T15:46:05;5.20;;;2.70;;
38182;SDS011;23991;52.430;10.586;2023-02-28T15:48:34;4.22;;;2.85;;
38182;SDS011;23991;52.430;10.586;2023-02-28T15:56:30;4.57;;;2.53;;
38182;SDS011;23991;52.430;10.586;2023-02-28T15:58:58;5.38;;;2.78;;
38182;SDS011;23991;52.430;10.586;2023-02-28T16:01:30;4.90;;;2.67;;
38182;SDS011;23991;52.430;10.586;2023-02-28T16:04:01;4.63;;;2.40;;
38182;SDS011;23991;52.430;10.586;2023-02-28T16:06:37;6.30;;;2.90;;
38182;SDS011;23991;52.430;10.586;2023-02-28T16:09:08;6.78;;;3.08;;
38182;SDS011;23991;52.430;10.586;2023-02-28T16:11:47;5.57;;;3.38;;
38182;SDS011;23991;52.430;10.586;2023-02-28T16:14:22;5.82;;;3.38;;
38182;SDS011;23991;52.430;10.586;2023-02-28T16:17:04;10.52;;;4.65;;
38182;SDS011;23991;52.430;10.586;2023-02-28T16:19:31;7.60;;;4.03;;
38182;SDS011;23991;52.430;10.586;2023-02-28T16:21:57;12.02;;;4.57;;
38182;SDS011;23991;52.430;10.586;2023-02-28T16:24:23;10.85;;;5.03;;
38182;SDS011;23991;52.430;10.586;2023-02-28T16:26:49;7.93;;;4.30;;
38182;SDS011;23991;52.430;10.586;2023-02-28T16:29:22;9.88;;;4.68;;
38182;SDS011;23991;52.430;10.586;2023-02-28T16:32:00;11.75;;;6.10;;
38182;SDS011;23991;52.430;10.586;2023-02-28T16:34:26;22.77;;;7.45;;
38182;SDS011;23991;52.430;10.586;2023-02-28T16:36:52;20.98;;;8.25;;
38182;SDS011;23991;52.430;10.586;2023-02-28T16:39:18;26.25;;;11.25;;
38182;SDS011;23991;52.430;10.586;2023-02-28T16:41:45;27.48;;;11.60;;
38182;SDS011;23991;52.430;10.586;2023-02-28T16:44:32;24.13;;;11.10;;
38182;SDS011;23991;52.430;10.586;2023-02-28T16:46:59;19.40;;;8.10;;
38182;SDS011;23991;52.430;10.586;2023-02-28T16:49:26;16.65;;;7.03;;
38182;SDS011;23991;52.430;10.586;2023-02-28T16:51:52;12.45;;;5.78;;
38182;SDS011;23991;52.430;10.586;2023-02-28T16:54:17;15.10;;;6.50;;
38182;SDS011;23991;52.430;10.586;2023-02-28T16:56:44;11.60;;;5.22;;
38182;SDS011;23991;52.430;10.586;2023-02-28T16:59:12;7.00;;;3.97;;
38182;SDS011;23991;52.430;10.586;2023-02-28T17:01:38;11.02;;;5.22;;
38182;SDS011;23991;52.430;10.586;2023-02-28T17:04:04;18.90;;;10.75;;
38182;SDS011;23991;52.430;10.586;2023-02-28T17:06:30;14.60;;;9.32;;
38182;SDS011;23991;52.430;10.586;2023-02-28T17:08:56;13.40;;;7.53;;
38182;SDS011;23991;52.430;10.586;2023-02-28T17:11:23;7.57;;;5.45;;
38182;SDS011;23991;52.430;10.586;2023-02-28T17:13:50;9.65;;;5.65;;
38182;SDS011;23991;52.430;10.586;2023-02-28T17:16:21;7.57;;;4.55;;
38182;SDS011;23991;52.430;10.586;2023-02-28T17:18:47;9.50;;;5.38;;
38182;SDS011;23991;52.430;10.586;2023-02-28T17:21:15;14.32;;;7.53;;
38182;SDS011;23991;52.430;10.586;2023-02-28T17:23:41;16.85;;;8.93;;
38182;SDS011;23991;52.430;10.586;2023-02-28T17:26:09;22.48;;;11.50;;